Time;durP1;ratioP1;P1;durP2;ratioP2;P2;SDS_P1;SDS_P2;PMS_P1;PMS_P2;Temp;Humidity;BMP_temperature;BMP_pressure;BME280_temperature;BME280_humidity;BME280_pressure;Samples;Min_cycle;Max_cycle;Signal;HPM_P1;HPM_P2
2024/04/21 00:00:07;;;;;;;6.15;4.32;;;;;;;2.36;100.00;98552.47;6108580;19;20078;-76
2024/04/21 00:02:07;;;;;;;8.70;6.00;;;;;;;2.34;100.00;98552.78;6108456;19;20003;-76
2024/04/21 00:04:07;;;;;;;8.35;6.20;;;;;;;2.33;100.00;98544.91;6109737;19;20018;-76
2024/04/21 00:06:08;;;;;;;9.23;6.60;;;;;;;2.35;100.00;98550.84;6109281;19;20113;-76
2024/04/21 00:08:08;;;;;;;9.05;6.60;;;;;;;2.28;100.00;98545.06;6108433;19;19999;-76
2024/04/21 00:10:09;;;;;;;6.50;5.18;;;;;;;2.26;100.00;98534.47;6105324;19;20540;-76
2024/04/21 00:12:09;;;;;;;5.75;5.00;;;;;;;2.20;100.00;98530.31;6108869;19;20312;-76
2024/04/21 00:14:09;;;;;;;6.40;5.05;;;;;;;2.20;100.00;98531.09;6109052;19;19998;-76
2024/04/21 00:16:10;;;;;;;7.18;4.80;;;;;;;2.12;100.00;98531.91;6107885;19;20034;-76
2024/04/21 00:18:10;;;;;;;5.80;4.65;;;;;;;2.11;100.00;98532.22;6107940;19;20443;-76
2024/04/21 00:20:11;;;;;;;7.10;5.05;;;;;;;2.06;100.00;98535.91;6106549;19;19998;-76
2024/04/21 00:22:11;;;;;;;5.60;4.43;;;;;;;2.02;100.00;98534.16;6107334;19;20003;-77
2024/04/21 00:24:11;;;;;;;6.18;4.32;;;;;;;2.07;100.00;98533.97;6108911;19;20438;-76
2024/04/21 00:26:12;;;;;;;4.93;3.67;;;;;;;2.01;100.00;98530.63;6109717;19;20042;-77
2024/04/21 00:28:12;;;;;;;6.00;4.15;;;;;;;2.01;100.00;98530.63;6108083;19;20015;-76
2024/04/21 00:30:12;;;;;;;4.05;3.28;;;;;;;1.94;100.00;98527.56;6106196;19;19999;-76
2024/04/21 00:32:13;;;;;;;6.45;3.97;;;;;;;1.94;100.00;98533.03;6107987;19;20057;-76
2024/04/21 00:34:13;;;;;;;5.38;3.42;;;;;;;1.95;100.00;98523.72;6108515;19;20469;-76
2024/04/21 00:36:13;;;;;;;6.03;3.85;;;;;;;1.93;100.00;98523.25;6108802;19;20003;-76
2024/04/21 00:38:15;;;;;;;5.25;3.60;;;;;;;1.89;100.00;98523.06;6108365;19;20324;-76
2024/04/21 00:40:15;;;;;;;4.38;3.60;;;;;;;1.90;100.00;98523.84;6102689;19;20366;-76
2024/04/21 00:42:15;;;;;;;4.97;3.92;;;;;;;1.87;100.00;98522.56;6102543;19;20002;-76
2024/04/21 00:44:16;;;;;;;4.30;3.90;;;;;;;1.83;100.00;98512.63;6101219;19;20018;-76
2024/04/21 00:46:16;;;;;;;5.03;3.72;;;;;;;1.75;100.00;98507.97;6102500;19;20475;-76
2024/04/21 00:48:17;;;;;;;5.38;3.92;;;;;;;1.71;100.00;98507.00;6098345;19;20015;-76
2024/04/21 00:50:18;;;;;;;5.70;3.60;;;;;;;1.72;100.00;98505.88;6098961;19;20364;-76
2024/04/21 00:52:18;;;;;;;4.97;3.72;;;;;;;1.71;100.00;98507.00;6100268;19;20284;-76
2024/04/21 00:54:19;;;;;;;4.68;3.85;;;;;;;1.72;100.00;98501.22;6100328;19;20005;-76
2024/04/21 00:56:22;;;;;;;5.70;3.85;;;;;;;1.68;100.00;98503.78;6101564;19;20118;-76
2024/04/21 00:58:23;;;;;;;7.13;3.78;;;;;;;1.63;100.00;98500.41;6101025;19;20081;-76
2024/04/21 01:00:25;;;;;;;4.65;4.03;;;;;;;1.63;100.00;98512.13;6099536;19;20282;-76
2024/04/21 01:02:25;;;;;;;5.28;4.00;;;;;;;1.63;100.00;98512.13;6101183;19;20030;-76
2024/04/21 01:04:26;;;;;;;5.05;3.58;;;;;;;1.60;100.00;98504.59;6102116;19;20002;-76
2024/04/21 01:06:26;;;;;;;4.63;3.70;;;;;;;1.64;100.00;98502.81;6102156;19;20251;-77
2024/04/21 01:08:28;;;;;;;4.35;3.60;;;;;;;1.54;100.00;98503.13;6100978;19;20350;-76
2024/04/21 01:10:28;;;;;;;5.88;3.80;;;;;;;1.50;100.00;98506.81;6100144;19;20237;-76
2024/04/21 01:12:28;;;;;;;4.00;3.55;;;;;;;1.47;100.00;98504.69;6100711;19;20387;-76
2024/04/21 01:14:29;;;;;;;5.20;3.70;;;;;;;1.46;100.00;98508.56;6102804;19;20014;-77
2024/04/21 01:16:29;;;;;;;4.55;3.40;;;;;;;1.38;100.00;98500.03;6101314;19;20019;-76
2024/04/21 01:18:29;;;;;;;4.70;3.72;;;;;;;1.41;100.00;98506.78;6097406;19;20023;-76
2024/04/21 01:20:33;;;;;;;7.68;3.85;;;;;;;1.35;100.00;98497.16;6101348;19;20006;-77
2024/04/21 01:22:33;;;;;;;3.75;3.08;;;;;;;1.33;100.00;98500.19;6099303;19;20006;-77
2024/04/21 01:24:33;;;;;;;4.78;3.22;;;;;;;1.31;100.00;98494.25;6101515;19;20462;-76
2024/04/21 01:26:34;;;;;;;4.38;3.50;;;;;;;1.30;100.00;98500.81;6098909;19;20002;-76
2024/04/21 01:28:34;;;;;;;3.72;3.00;;;;;;;1.27;100.00;98496.00;6099459;19;20329;-76
2024/04/21 01:30:34;;;;;;;4.65;3.40;;;;;;;1.26;100.00;98493.59;6100955;19;20010;-76
2024/04/21 01:32:35;;;;;;;5.80;3.33;;;;;;;1.32;100.00;98503.22;6098498;19;20010;-76
2024/04/21 01:34:35;;;;;;;4.15;3.15;;;;;;;1.34;100.00;98492.81;6100330;19;20533;-76
2024/04/21 01:36:35;;;;;;;4.30;3.00;;;;;;;1.33;100.00;98500.19;6099367;19;20011;-76
2024/04/21 01:38:36;;;;;;;4.68;3.28;;;;;;;1.36;100.00;98496.81;6101306;19;20014;-76
2024/04/21 01:40:36;;;;;;;4.78;3.25;;;;;;;1.42;100.00;98496.69;6103984;19;20017;-76
2024/04/21 01:42:36;;;;;;;4.47;3.00;;;;;;;1.43;100.00;98504.53;6108592;19;20006;-76
2024/04/21 01:44:37;;;;;;;4.38;3.08;;;;;;;1.42;100.00;98497.50;6108855;19;20011;-77
2024/04/21 01:46:37;;;;;;;11.77;4.00;;;;;;;1.38;100.00;98494.59;6107061;19;20010;-76
2024/04/21 01:48:37;;;;;;;4.53;3.60;;;;;;;1.42;100.00;98502.16;6107519;19;20044;-76
2024/04/21 01:50:38;;;;;;;5.50;3.72;;;;;;;1.46;100.00;98501.19;6106478;19;20019;-76
2024/04/21 01:52:39;;;;;;;4.82;3.53;;;;;;;1.48;100.00;98498.94;6107928;19;20538;-76
2024/04/21 01:54:39;;;;;;;5.20;3.70;;;;;;;1.51;100.00;98501.03;6107219;19;20014;-76
2024/04/21 01:56:39;;;;;;;5.57;3.45;;;;;;;1.48;100.00;98489.94;6106947;19;20009;-76
2024/04/21 01:58:39;;;;;;;4.88;3.65;;;;;;;1.55;100.00;98498.47;6106931;19;20032;-77
2024/04/21 02:00:40;;;;;;;5.38;3.80;;;;;;;1.55;100.00;98495.75;6106234;19;20030;-76
2024/04/21 02:02:40;;;;;;;4.85;3.47;;;;;;;1.54;100.00;98486.75;6105952;19;20029;-76
2024/04/21 02:04:40;;;;;;;5.32;3.80;;;;;;;1.54;100.00;98485.97;6105989;19;20006;-76
2024/04/21 02:06:41;;;;;;;5.40;3.88;;;;;;;1.60;100.00;98495.59;6107389;19;20012;-76
2024/04/21 02:08:41;;;;;;;5.93;3.78;;;;;;;1.56;100.00;98480.97;6106538;19;20003;-76
2024/04/21 02:10:41;;;;;;;7.10;3.65;;;;;;;1.56;100.00;98487.22;6106694;19;20029;-76
2024/04/21 02:12:42;;;;;;;5.38;4.00;;;;;;;1.61;100.00;98483.56;6105430;19;20002;-77
2024/04/21 02:14:42;;;;;;;4.93;3.80;;;;;;;1.66;100.00;98484.22;6107399;19;20460;-76
2024/04/21 02:16:42;;;;;;;6.13;3.70;;;;;;;1.69;100.00;98482.78;6104757;19;20011;-77
2024/04/21 02:18:42;;;;;;;5.13;3.80;;;;;;;1.69;100.00;98483.56;6106558;19;20013;-76
2024/04/21 02:20:43;;;;;;;5.00;3.28;;;;;;;1.70;100.00;98478.91;6106271;19;20467;-76
2024/04/21 02:22:43;;;;;;;6.60;4.10;;;;;;;1.71;100.00;98483.25;6104816;19;20035;-76
2024/04/21 02:24:44;;;;;;;5.35;3.90;;;;;;;1.70;100.00;98484.38;6106897;19;20006;-76
2024/04/21 02:26:44;;;;;;;5.68;4.13;;;;;;;1.70;100.00;98481.66;6105216;19;20018;-76
2024/04/21 02:28:44;;;;;;;5.70;4.00;;;;;;;1.71;100.00;98482.44;6107228;19;20014;-76
2024/04/21 02:30:44;;;;;;;6.85;4.47;;;;;;;1.71;100.00;98480.53;6104884;19;20013;-76
2024/04/21 02:32:45;;;;;;;5.32;3.72;;;;;;;1.70;100.00;98484.38;6108321;19;20015;-76
2024/04/21 02:34:45;;;;;;;5.95;3.90;;;;;;;1.68;100.00;98476.50;6110931;19;20033;-77
2024/04/21 02:36:46;;;;;;;5.72;3.70;;;;;;;1.67;100.00;98482.28;6111164;19;20101;-77
2024/04/21 02:38:46;;;;;;;4.70;3.70;;;;;;;1.68;100.00;98473.78;6112081;19;20015;-76
2024/04/21 02:40:46;;;;;;;6.07;4.03;;;;;;;1.73;100.00;98472.81;6112299;19;20022;-77
2024/04/21 02:42:47;;;;;;;5.47;4.00;;;;;;;1.74;100.00;98479.06;6112752;19;20010;-77
2024/04/21 02:44:47;;;;;;;5.88;3.88;;;;;;;1.73;100.00;98472.00;6110375;19;20052;-76
2024/04/21 02:46:48;;;;;;;5.32;3.58;;;;;;;1.75;100.00;98475.25;6112406;19;20471;-77
2024/04/21 02:48:48;;;;;;;5.53;4.28;;;;;;;1.82;100.00;98478.28;6112473;19;20018;-76
2024/04/21 02:50:50;;;;;;;5.40;3.92;;;;;;;1.81;100.00;98479.41;6109938;19;20385;-76
2024/04/21 02:52:51;;;;;;;5.53;3.72;;;;;;;1.83;100.00;98475.25;6112900;19;20007;-77
2024/04/21 02:54:51;;;;;;;6.30;4.30;;;;;;;1.84;100.00;98481.50;6113549;19;20007;-77
2024/04/21 02:56:52;;;;;;;6.45;4.55;;;;;;;1.83;100.00;98469.00;6111221;19;20513;-76
2024/04/21 02:58:52;;;;;;;5.75;4.25;;;;;;;1.84;100.00;98478.78;6111536;19;20002;-77
2024/04/21 03:00:52;;;;;;;6.35;4.55;;;;;;;1.81;100.00;98474.75;6112842;19;20006;-76
2024/04/21 03:02:53;;;;;;;4.82;3.47;;;;;;;1.83;100.00;98477.97;6111636;19;20022;-76
2024/04/21 03:04:53;;;;;;;5.93;4.40;;;;;;;1.82;100.00;98473.66;6112744;19;20007;-76
2024/04/21 03:06:53;;;;;;;7.60;4.28;;;;;;;1.87;100.00;98476.19;6110253;19;20007;-76
2024/04/21 03:08:54;;;;;;;6.30;4.38;;;;;;;1.88;100.00;98477.00;6111077;19;20003;-76
2024/04/21 03:10:54;;;;;;;6.60;4.60;;;;;;;1.87;100.00;98478.94;6110970;19;20012;-77
2024/04/21 03:12:55;;;;;;;6.07;4.30;;;;;;;1.87;100.00;98478.13;6109688;19;20078;-77
2024/04/21 03:14:55;;;;;;;7.20;4.65;;;;;;;1.86;100.00;98480.06;6112709;19;20398;-76
2024/04/21 03:16:56;;;;;;;6.20;4.55;;;;;;;1.84;100.00;98470.59;6112135;19;20026;-76
2024/04/21 03:18:56;;;;;;;6.35;4.50;;;;;;;1.82;100.00;98473.66;6111461;19;20002;-77
2024/04/21 03:20:58;;;;;;;6.47;4.90;;;;;;;1.87;100.00;98476.19;6109222;19;20038;-76
2024/04/21 03:22:58;;;;;;;6.57;5.13;;;;;;;1.88;100.00;98477.00;6110156;19;20373;-76
2024/04/21 03:24:58;;;;;;;7.65;5.57;;;;;;;1.88;100.00;98482.44;6111876;19;20006;-77
2024/04/21 03:26:59;;;;;;;6.60;5.00;;;;;;;1.88;100.00;98471.53;6112153;19;20522;-76
2024/04/21 03:28:59;;;;;;;8.05;5.05;;;;;;;1.86;100.00;98480.06;6109280;19;20098;-76
2024/04/21 03:31:00;;;;;;;7.43;4.82;;;;;;;1.87;100.00;98473.47;6111394;19;20022;-77
2024/04/21 03:33:00;;;;;;;7.03;4.75;;;;;;;1.88;100.00;98472.34;6111853;19;20023;-76
2024/04/21 03:35:01;;;;;;;7.32;4.90;;;;;;;1.86;100.00;98479.25;6109654;19;20006;-76
2024/04/21 03:37:01;;;;;;;8.30;5.55;;;;;;;1.86;100.00;98471.88;6108873;19;20002;-76
2024/04/21 03:39:02;;;;;;;10.63;5.13;;;;;;;1.83;100.00;98483.44;6108709;19;20017;-77
2024/04/21 03:41:03;;;;;;;7.32;4.95;;;;;;;1.83;100.00;98471.72;6110889;19;20006;-77
2024/04/21 03:43:03;;;;;;;6.68;5.03;;;;;;;1.83;100.00;98474.44;6109036;19;20030;-77
2024/04/21 03:45:05;;;;;;;6.75;4.97;;;;;;;1.80;100.00;98480.53;6108150;19;20003;-76
2024/04/21 03:47:05;;;;;;;10.48;5.63;;;;;;;1.81;100.00;98469.28;6109387;19;20011;-76
2024/04/21 03:49:06;;;;;;;6.72;5.00;;;;;;;1.83;100.00;98469.00;6110666;19;20340;-77
2024/04/21 03:51:06;;;;;;;7.28;4.82;;;;;;;1.84;100.00;98474.13;6110405;19;20013;-76
2024/04/21 03:53:08;;;;;;;7.88;5.50;;;;;;;1.84;100.00;98479.56;6110401;19;20082;-77
2024/04/21 03:55:09;;;;;;;7.32;5.40;;;;;;;1.86;100.00;98480.06;6111934;19;20003;-77
2024/04/21 03:57:09;;;;;;;8.02;5.53;;;;;;;1.84;100.00;98485.03;6110358;19;20082;-76
2024/04/21 03:59:09;;;;;;;7.80;5.18;;;;;;;1.88;100.00;98482.44;6109655;19;20483;-77
2024/04/21 04:01:10;;;;;;;10.90;6.03;;;;;;;1.91;100.00;98484.56;6110304;19;20013;-77
2024/04/21 04:03:10;;;;;;;7.43;5.30;;;;;;;1.93;100.00;98490.50;6109529;19;20006;-76
2024/04/21 04:05:10;;;;;;;9.52;5.78;;;;;;;2.00;100.00;98498.19;6110378;19;20368;-77
2024/04/21 04:07:10;;;;;;;8.57;4.97;;;;;;;1.97;100.00;98500.44;6110311;19;20006;-76
2024/04/21 04:09:11;;;;;;;6.88;4.78;;;;;;;2.01;100.00;98497.88;6109592;19;20003;-76
2024/04/21 04:11:11;;;;;;;7.68;5.25;;;;;;;2.03;100.00;98498.34;6107600;19;20372;-76
2024/04/21 04:13:11;;;;;;;9.18;5.07;;;;;;;2.02;100.00;98499.47;6110521;19;20009;-77
2024/04/21 04:15:12;;;;;;;7.65;5.40;;;;;;;2.07;100.00;98504.78;6110452;19;20438;-76
2024/04/21 04:17:12;;;;;;;9.95;5.55;;;;;;;2.09;100.00;98499.00;6110055;19;20007;-76
2024/04/21 04:19:12;;;;;;;7.35;5.32;;;;;;;2.13;100.00;98503.47;6107789;19;20134;-76
2024/04/21 04:21:13;;;;;;;8.00;5.68;;;;;;;2.13;100.00;98508.94;6108216;19;20473;-76
2024/04/21 04:23:13;;;;;;;10.90;5.97;;;;;;;2.12;100.00;98501.88;6109712;19;20352;-76
2024/04/21 04:25:13;;;;;;;8.30;5.40;;;;;;;2.15;100.00;98503.16;6108128;19;20498;-76
2024/04/21 04:27:14;;;;;;;10.13;6.22;;;;;;;2.12;100.00;98506.53;6109710;19;20010;-77
2024/04/21 04:29:14;;;;;;;10.70;6.57;;;;;;;2.09;100.00;98508.00;6110429;19;20010;-76
2024/04/21 04:31:14;;;;;;;15.32;6.80;;;;;;;2.10;100.00;98514.25;6107375;19;20951;-76
2024/04/21 04:33:15;;;;;;;42.03;10.77;;;;;;;2.14;100.00;98515.19;6110222;19;20040;-77
2024/04/21 04:35:16;;;;;;;14.60;6.43;;;;;;;2.17;100.00;98515.38;6108309;19;20073;-76
2024/04/21 04:37:16;;;;;;;10.48;6.88;;;;;;;2.20;100.00;98513.91;6109962;19;20356;-76
2024/04/21 04:39:17;;;;;;;9.35;6.50;;;;;;;2.16;100.00;98524.69;6100764;19;20030;-76
2024/04/21 04:41:17;;;;;;;10.88;6.80;;;;;;;2.25;100.00;98513.78;6107023;19;20225;-76
2024/04/21 04:43:17;;;;;;;9.98;6.82;;;;;;;2.21;100.00;98512.78;6109479;19;20007;-77
2024/04/21 04:45:19;;;;;;;10.05;6.65;;;;;;;2.20;100.00;98512.00;6108458;19;20473;-77
2024/04/21 04:47:19;;;;;;;12.53;7.73;;;;;;;2.22;100.00;98517.13;6106566;19;20035;-76
2024/04/21 04:49:20;;;;;;;11.18;7.35;;;;;;;2.24;100.00;98515.69;6108062;19;20014;-76
2024/04/21 04:51:20;;;;;;;11.90;7.40;;;;;;;2.27;100.00;98522.44;6108430;19;20501;-77
2024/04/21 04:53:20;;;;;;;12.05;7.82;;;;;;;2.30;100.00;98521.78;6109663;19;20003;-77
2024/04/21 04:55:21;;;;;;;10.45;7.53;;;;;;;2.35;100.00;98521.63;6107337;19;20089;-77
2024/04/21 04:57:22;;;;;;;13.85;7.88;;;;;;;2.35;100.00;98521.63;6106910;19;20002;-76
2024/04/21 04:59:22;;;;;;;13.30;7.18;;;;;;;2.38;100.00;98526.44;6106613;19;20014;-77
2024/04/21 05:01:22;;;;;;;15.13;9.48;;;;;;;2.40;100.00;98528.81;6109062;19;20006;-76
2024/04/21 05:03:23;;;;;;;17.27;9.27;;;;;;;2.42;100.00;98519.22;6107330;19;20034;-77
2024/04/21 05:05:23;;;;;;;17.30;10.30;;;;;;;2.43;100.00;98537.19;6107748;19;20357;-76
2024/04/21 05:07:23;;;;;;;17.02;10.32;;;;;;;2.53;100.00;98538.78;6108194;19;20033;-76
2024/04/21 05:09:24;;;;;;;16.70;9.90;;;;;;;2.58;100.00;98538.63;6106199;19;20086;-76
2024/04/21 05:11:24;;;;;;;14.98;9.15;;;;;;;2.59;100.00;98540.22;6106656;19;20077;-76
2024/04/21 05:13:24;;;;;;;17.27;10.57;;;;;;;2.53;100.00;98544.25;6109153;19;20083;-77
2024/04/21 05:15:25;;;;;;;14.85;8.88;;;;;;;2.63;100.00;98543.09;6106066;19;20013;-77
2024/04/21 05:17:25;;;;;;;15.77;9.02;;;;;;;2.51;100.00;98547.31;6109218;19;19999;-76
2024/04/21 05:19:26;;;;;;;14.27;8.80;;;;;;;2.59;100.00;98550.34;6107348;19;20010;-76
2024/04/21 05:21:26;;;;;;;15.38;9.00;;;;;;;2.56;100.00;98548.25;6108301;19;20006;-76
2024/04/21 05:23:27;;;;;;;14.45;9.63;;;;;;;2.49;100.00;98551.50;6106600;19;20062;-76
2024/04/21 05:25:27;;;;;;;15.68;9.18;;;;;;;2.36;100.00;98552.47;6107686;19;20045;-76
2024/04/21 05:27:27;;;;;;;16.10;9.70;;;;;;;2.35;100.00;98553.59;6109678;19;20402;-76
2024/04/21 05:29:28;;;;;;;14.35;8.35;;;;;;;2.34;100.00;98565.63;6104443;19;20470;-76
2024/04/21 05:31:28;;;;;;;16.83;9.18;;;;;;;2.39;100.00;98563.53;6105320;19;20007;-75
2024/04/21 05:33:29;;;;;;;13.23;8.30;;;;;;;2.39;100.00;98563.53;6107202;19;20011;-75
2024/04/21 05:35:29;;;;;;;16.13;9.43;;;;;;;2.43;100.00;98567.22;6106581;19;20093;-76
2024/04/21 05:37:30;;;;;;;12.27;8.15;;;;;;;2.44;100.00;98565.31;6106941;19;20021;-75
2024/04/21 05:39:30;;;;;;;13.27;7.47;;;;;;;2.48;100.00;98569.81;6102966;19;20347;-76
2024/04/21 05:41:30;;;;;;;10.75;7.85;;;;;;;2.48;100.00;98579.91;6099060;19;20436;-76
2024/04/21 05:43:30;;;;;;;13.38;8.32;;;;;;;2.51;100.00;98573.81;6098624;19;20031;-76
2024/04/21 05:45:31;;;;;;;12.13;7.63;;;;;;;2.45;100.00;98570.44;6098471;19;20023;-76
2024/04/21 05:47:32;;;;;;;14.43;7.05;;;;;;;2.42;100.00;98579.28;6100950;19;20018;-75
2024/04/21 05:49:32;;;;;;;10.70;7.22;;;;;;;2.51;100.00;98579.28;6097479;19;20010;-76
2024/04/21 05:51:33;;;;;;;11.75;7.53;;;;;;;2.51;100.00;98574.63;6099543;19;20003;-76
2024/04/21 05:53:33;;;;;;;12.90;6.97;;;;;;;2.54;100.00;98587.63;6096609;19;20074;-76
2024/04/21 05:55:33;;;;;;;10.15;6.78;;;;;;;2.59;100.00;98580.41;6097709;19;20010;-76
2024/04/21 05:57:34;;;;;;;8.68;5.85;;;;;;;2.58;100.00;98587.78;6097478;19;20002;-75
2024/04/21 05:59:34;;;;;;;8.98;5.32;;;;;;;2.59;100.00;98583.13;6100334;19;20007;-76
2024/04/21 06:01:34;;;;;;;9.35;6.10;;;;;;;2.62;100.00;98591.47;6098180;19;20307;-76
2024/04/21 06:03:35;;;;;;;8.73;6.50;;;;;;;2.57;100.00;98593.59;6100251;19;20006;-76
2024/04/21 06:05:35;;;;;;;9.77;6.25;;;;;;;2.57;100.00;98588.13;6099869;19;20799;-75
2024/04/21 06:07:36;;;;;;;11.88;6.20;;;;;;;2.51;100.00;98596.47;6101438;19;20066;-76
2024/04/21 06:09:37;;;;;;;9.90;6.15;;;;;;;2.46;100.00;98593.09;6101859;19;20014;-75
2024/04/21 06:11:37;;;;;;;12.10;7.18;;;;;;;2.42;100.00;98603.88;6105696;19;20065;-76
2024/04/21 06:13:37;;;;;;;9.27;6.18;;;;;;;2.49;100.00;98606.91;6104448;19;20010;-76
2024/04/21 06:15:38;;;;;;;8.40;6.40;;;;;;;2.43;100.00;98607.41;6105816;19;20014;-75
2024/04/21 06:17:38;;;;;;;10.43;6.80;;;;;;;2.43;100.00;98605.47;6103480;19;20018;-76
2024/04/21 06:19:39;;;;;;;8.27;6.03;;;;;;;2.44;100.00;98612.53;6105648;19;20003;-75
2024/04/21 06:21:39;;;;;;;9.23;6.47;;;;;;;2.50;100.00;98610.44;6104961;19;20975;-75
2024/04/21 06:23:39;;;;;;;10.13;6.38;;;;;;;2.55;100.00;98615.72;6105637;19;20023;-75
2024/04/21 06:25:40;;;;;;;10.90;6.97;;;;;;;2.44;100.00;98612.53;6104781;19;20010;-76
2024/04/21 06:27:40;;;;;;;11.30;6.72;;;;;;;2.42;100.00;98616.72;6103925;19;20780;-75
2024/04/21 06:29:40;;;;;;;12.23;7.50;;;;;;;2.45;100.00;98618.78;6103431;19;20005;-75
2024/04/21 06:31:42;;;;;;;17.23;8.52;;;;;;;2.50;100.00;98615.91;6101199;19;20014;-76
2024/04/21 06:33:42;;;;;;;14.15;8.63;;;;;;;2.46;100.00;98614.94;6105589;19;20041;-76
2024/04/21 06:35:44;;;;;;;12.55;7.40;;;;;;;2.53;100.00;98620.72;6106145;19;20010;-75
2024/04/21 06:37:45;;;;;;;12.45;7.20;;;;;;;2.63;100.00;98611.41;6104344;19;20017;-75
2024/04/21 06:39:45;;;;;;;14.43;9.02;;;;;;;2.62;100.00;98618.78;6105876;19;20523;-75
2024/04/21 06:41:46;;;;;;;11.35;7.80;;;;;;;2.62;100.00;98615.25;6110968;19;20459;-75
2024/04/21 06:43:46;;;;;;;13.82;7.97;;;;;;;2.57;100.00;98618.16;6109864;19;20013;-77
2024/04/21 06:45:47;;;;;;;11.93;7.25;;;;;;;2.66;100.00;98614.31;6112605;19;20017;-76
2024/04/21 06:47:47;;;;;;;10.48;7.13;;;;;;;2.66;100.00;98610.78;6110332;19;20073;-76
2024/04/21 06:49:48;;;;;;;12.40;7.78;;;;;;;2.54;100.00;98625.06;6107431;19;20684;-77
2024/04/21 06:51:48;;;;;;;13.07;7.05;;;;;;;2.45;100.00;98611.41;6110201;19;19999;-76
2024/04/21 06:53:48;;;;;;;10.57;6.75;;;;;;;2.52;100.00;98627.31;6108639;19;19999;-77
2024/04/21 06:55:49;;;;;;;9.15;6.13;;;;;;;2.51;100.00;98626.50;6110041;19;20017;-77
2024/04/21 06:57:49;;;;;;;8.18;5.25;;;;;;;2.44;100.00;98626.19;6111893;19;20400;-76
2024/04/21 06:59:49;;;;;;;8.75;5.63;;;;;;;2.43;100.00;98629.25;6110696;19;20490;-76
2024/04/21 07:01:51;;;;;;;9.88;6.22;;;;;;;2.54;100.00;98630.53;6110565;19;20061;-77
2024/04/21 07:03:51;;;;;;;8.85;6.07;;;;;;;2.57;100.00;98629.09;6111659;19;20011;-76
2024/04/21 07:05:52;;;;;;;9.18;6.00;;;;;;;2.60;100.00;98633.91;6109066;19;20113;-77
2024/04/21 07:07:52;;;;;;;9.88;6.50;;;;;;;2.50;100.00;98635.03;6109699;19;20374;-76
2024/04/21 07:09:52;;;;;;;8.82;6.20;;;;;;;2.62;100.00;98635.19;6111517;19;20094;-77
2024/04/21 07:11:52;;;;;;;10.75;5.85;;;;;;;2.60;100.00;98636.63;6108778;19;20431;-77
2024/04/21 07:13:53;;;;;;;8.82;6.00;;;;;;;2.63;100.00;98642.25;6111813;19;20414;-76
2024/04/21 07:15:53;;;;;;;10.18;5.32;;;;;;;2.60;100.00;98639.38;6110050;19;20429;-77
2024/04/21 07:17:54;;;;;;;7.55;5.10;;;;;;;2.62;100.00;98656.22;6109661;19;20102;-76
2024/04/21 07:19:54;;;;;;;9.07;5.68;;;;;;;2.52;100.00;98646.44;6108031;19;20003;-76
2024/04/21 07:21:57;;;;;;;7.20;5.43;;;;;;;2.50;100.00;98656.88;6110277;19;20573;-76
2024/04/21 07:23:58;;;;;;;8.60;5.90;;;;;;;2.47;100.00;98658.31;6106483;19;19999;-76
2024/04/21 07:25:58;;;;;;;7.35;4.70;;;;;;;2.49;100.00;98660.75;6107776;19;20482;-76
2024/04/21 07:27:59;;;;;;;9.13;6.25;;;;;;;2.47;100.00;98660.22;6107072;19;20432;-77
2024/04/21 07:29:59;;;;;;;21.65;5.68;;;;;;;2.45;100.00;98655.09;6109237;19;20430;-76
2024/04/21 07:32:00;;;;;;;7.90;5.35;;;;;;;2.47;100.00;98658.31;6109469;19;20002;-76
2024/04/21 07:34:01;;;;;;;7.93;4.95;;;;;;;2.45;100.00;98657.03;6110099;19;20014;-76
2024/04/21 07:36:02;;;;;;;7.05;4.95;;;;;;;2.54;100.00;98663.28;6109485;19;21539;-76
2024/04/21 07:38:02;;;;;;;8.95;4.95;;;;;;;2.47;100.00;98663.78;6110343;19;20024;-76
2024/04/21 07:40:03;;;;;;;4.40;3.65;;;;;;;2.53;100.00;98659.75;6110232;19;20003;-76
2024/04/21 07:42:04;;;;;;;5.35;3.97;;;;;;;2.47;100.00;98666.50;6107724;19;20332;-77
2024/04/21 07:44:04;;;;;;;7.50;4.93;;;;;;;2.52;100.00;98657.34;6109943;19;20025;-76
2024/04/21 07:46:04;;;;;;;6.53;3.80;;;;;;;2.53;100.00;98665.22;6110591;19;20007;-77
2024/04/21 07:48:05;;;;;;;6.57;3.88;;;;;;;2.61;100.00;98660.91;6106899;19;20012;-77
2024/04/21 07:50:05;;;;;;;6.10;4.10;;;;;;;2.60;100.00;98680.34;6104424;19;20006;-76
2024/04/21 07:52:06;;;;;;;5.97;4.00;;;;;;;2.48;100.00;98681.78;6106975;19;20431;-76
2024/04/21 07:54:06;;;;;;;4.80;3.63;;;;;;;2.41;100.00;98672.47;6107018;19;20026;-76
2024/04/21 07:56:07;;;;;;;5.03;3.70;;;;;;;2.53;100.00;98680.81;6108148;19;20003;-76
2024/04/21 07:58:07;;;;;;;5.78;4.28;;;;;;;2.50;100.00;98686.94;6106780;19;20024;-76
2024/04/21 08:00:08;;;;;;;5.82;4.22;;;;;;;2.51;100.00;98686.59;6107721;19;20441;-76
2024/04/21 08:02:08;;;;;;;7.82;4.38;;;;;;;2.56;100.00;98691.09;6108158;19;19998;-77
2024/04/21 08:04:09;;;;;;;6.45;4.20;;;;;;;2.59;100.00;98695.13;6109589;19;19995;-76
2024/04/21 08:06:09;;;;;;;6.05;4.28;;;;;;;2.59;100.00;98690.47;6108857;19;20333;-77
2024/04/21 08:08:09;;;;;;;5.97;4.63;;;;;;;2.58;100.00;98696.25;6109618;19;20019;-76
2024/04/21 08:10:10;;;;;;;6.95;5.22;;;;;;;2.65;100.00;98699.28;6109516;19;20037;-76
2024/04/21 08:12:10;;;;;;;6.75;4.80;;;;;;;2.69;100.00;98695.59;6109683;19;19998;-76
2024/04/21 08:14:10;;;;;;;6.82;5.05;;;;;;;2.73;100.00;98702.06;6109938;19;20344;-76
2024/04/21 08:16:11;;;;;;;7.82;5.55;;;;;;;2.77;100.00;98700.28;6110532;19;20025;-77
2024/04/21 08:18:11;;;;;;;6.40;4.38;;;;;;;2.96;100.00;98701.88;6108625;19;20003;-76
2024/04/21 08:20:11;;;;;;;8.05;4.75;;;;;;;3.03;100.00;98705.72;6108943;19;20027;-77
2024/04/21 08:22:12;;;;;;;6.18;4.40;;;;;;;2.94;100.00;98712.34;6107945;19;20003;-76
2024/04/21 08:24:12;;;;;;;8.02;5.10;;;;;;;2.90;100.00;98714.13;6109156;19;20015;-76
2024/04/21 08:26:12;;;;;;;8.27;6.00;;;;;;;2.85;100.00;98706.88;6106420;19;20007;-77
2024/04/21 08:28:13;;;;;;;7.28;4.82;;;;;;;2.81;100.00;98711.34;6106595;19;20014;-76
2024/04/21 08:30:13;;;;;;;6.88;4.95;;;;;;;2.75;100.00;98721.66;6108144;19;19998;-76
2024/04/21 08:32:14;;;;;;;7.72;5.30;;;;;;;2.65;100.00;98724.72;6107746;19;20804;-76
2024/04/21 08:34:14;;;;;;;8.48;6.20;;;;;;;2.59;100.00;98723.25;6107808;19;20003;-76
2024/04/21 08:36:14;;;;;;;9.18;6.95;;;;;;;2.55;100.00;98722.25;6110343;19;20552;-76
2024/04/21 08:38:15;;;;;;;10.20;7.00;;;;;;;2.32;100.00;98727.06;6108282;19;20418;-76
2024/04/21 08:40:15;;;;;;;9.90;7.47;;;;;;;2.40;100.00;98725.44;6106532;19;20284;-77
2024/04/21 08:42:16;;;;;;;9.27;6.53;;;;;;;2.38;100.00;98733.97;6109610;19;20270;-77
2024/04/21 08:44:16;;;;;;;11.50;7.05;;;;;;;2.27;100.00;98735.38;6108007;19;20026;-77
2024/04/21 08:46:18;;;;;;;11.95;7.25;;;;;;;2.20;100.00;98735.84;6107274;19;20027;-77
2024/04/21 08:48:20;;;;;;;11.73;7.60;;;;;;;2.18;100.00;98743.56;6107951;19;20006;-76
2024/04/21 08:50:21;;;;;;;13.68;8.57;;;;;;;2.15;100.00;98732.44;6106782;19;20485;-77
2024/04/21 08:52:22;;;;;;;12.63;8.43;;;;;;;2.20;100.00;98751.41;6109650;19;20026;-77
2024/04/21 08:54:23;;;;;;;12.60;7.80;;;;;;;2.13;100.00;98746.41;6109009;19;20323;-76
2024/04/21 08:56:27;;;;;;;12.52;8.63;;;;;;;2.08;100.00;98735.66;6109273;19;20015;-77
2024/04/21 08:58:27;;;;;;;13.57;9.00;;;;;;;2.09;100.00;98739.19;6107894;19;20264;-76
2024/04/21 09:00:30;;;;;;;15.13;8.90;;;;;;;2.08;100.00;98741.13;6106138;19;20022;-76
2024/04/21 09:02:33;;;;;;;18.27;11.93;;;;;;;2.01;100.00;98748.94;6107800;19;20011;-76
2024/04/21 09:04:34;;;;;;;14.90;10.10;;;;;;;2.06;100.00;98753.44;6108693;19;20017;-77
2024/04/21 09:06:36;;;;;;;12.40;9.15;;;;;;;1.96;100.00;98746.34;6108567;19;20434;-76
2024/04/21 09:08:36;;;;;;;15.05;10.48;;;;;;;1.97;100.00;98751.47;6106961;19;20035;-76
2024/04/21 09:10:36;;;;;;;15.73;10.70;;;;;;;2.03;100.00;98745.91;6106905;19;20050;-77
2024/04/21 09:12:38;;;;;;;17.90;13.57;;;;;;;1.90;100.00;98755.78;6107871;19;20011;-76
2024/04/21 09:14:42;;;;;;;15.63;10.53;;;;;;;1.99;100.00;98759.38;6107173;19;20106;-76
2024/04/21 09:16:43;;;;;;;29.45;20.00;;;;;;;2.00;100.00;98757.47;6107811;19;20011;-76
2024/04/21 09:18:43;;;;;;;24.88;16.52;;;;;;;2.14;100.00;98747.22;6108009;19;20784;-76
2024/04/21 09:20:47;;;;;;;12.82;8.45;;;;;;;2.29;100.00;98751.44;6104960;19;20010;-76
2024/04/21 09:22:47;;;;;;;15.48;9.52;;;;;;;2.35;100.00;98751.00;6105300;19;20017;-76